createdAt,value
2023-01-07T00:01:09.463Z,94815.28
2023-01-07T00:03:37.616Z,94841.38
2023-01-07T00:06:08.972Z,94838.97
2023-01-07T00:08:38.402Z,94869.13
2023-01-07T00:11:07.569Z,94850.63
2023-01-07T00:13:36.035Z,94881.16
2023-01-07T00:16:06.708Z,94893.66
2023-01-07T00:18:35.529Z,94886.19
2023-01-07T00:21:07.841Z,94904.53
2023-01-07T00:23:37.697Z,94904.53
2023-01-07T00:26:08.555Z,94929.06
2023-01-07T00:28:38.202Z,94911.34
2023-01-07T00:31:09.768Z,94903.72
2023-01-07T00:33:44.516Z,94908.09
2023-01-07T00:36:13.923Z,94941.56
2023-01-07T00:38:42.026Z,94912.16
2023-01-07T00:41:11.056Z,94929.72
2023-01-07T00:43:38.812Z,94950.00
2023-01-07T00:46:07.077Z,94949.03
2023-01-07T00:48:39.467Z,94943.19
2023-01-07T00:51:07.694Z,94935.56
2023-01-07T00:53:36.804Z,94957.81
2023-01-07T00:56:06.914Z,94940.59
2023-01-07T00:58:34.696Z,94958.47
2023-01-07T01:01:03.523Z,94947.75
2023-01-07T01:03:32.889Z,94939.94
2023-01-07T01:06:03.419Z,94934.75
2023-01-07T01:08:31.304Z,94968.53
2023-01-07T01:11:05.311Z,94973.72
2023-01-07T01:13:34.251Z,94967.72
2023-01-07T01:16:02.568Z,94953.25
2023-01-07T01:18:30.373Z,94984.59
2023-01-07T01:21:03.419Z,94994.69
2023-01-07T01:23:31.171Z,94995.50
2023-01-07T01:26:05.444Z,95002.97
2023-01-07T01:28:33.691Z,95001.34
2023-01-07T01:31:01.940Z,95006.19
2023-01-07T01:33:29.915Z,95038.56
2023-01-07T01:35:57.961Z,95035.16
2023-01-07T01:38:25.710Z,94919.47
2023-01-07T01:40:53.581Z,95010.75
2023-01-07T01:43:30.580Z,95034.19
2023-01-07T01:46:01.998Z,95043.59
2023-01-07T01:48:30.853Z,95051.06
2023-01-07T01:50:59.133Z,95070.41
2023-01-07T01:53:31.184Z,95056.28
2023-01-07T01:56:04.011Z,95090.72
2023-01-07T01:58:37.478Z,95074.81
2023-01-07T02:01:05.843Z,95068.78
2023-01-07T02:03:36.345Z,95078.03
2023-01-07T02:06:05.143Z,95074.81
2023-01-07T02:08:33.210Z,95089.75
2023-01-07T02:11:13.011Z,95094.94
2023-01-07T02:13:56.129Z,95065.38
2023-01-07T02:16:35.958Z,95095.94
2023-01-07T02:19:32.892Z,95093.31
2023-01-07T02:22:07.592Z,95104.22
2023-01-07T02:25:06.819Z,95118.69
2023-01-07T02:28:05.736Z,95061.13
2023-01-07T02:30:46.403Z,95118.03
2023-01-07T02:33:42.012Z,95107.63
2023-01-07T02:36:40.982Z,95128.75
2023-01-07T02:39:23.117Z,95148.94
2023-01-07T02:41:58.794Z,95125.50
2023-01-07T02:44:36.535Z,95111.84
2023-01-07T02:47:10.683Z,95126.03
2023-01-07T02:49:39.825Z,95124.38
2023-01-07T02:52:22.857Z,95139.03
2023-01-07T02:54:56.256Z,95144.88
2023-01-07T02:57:53.326Z,95164.22
2023-01-07T03:00:37.217Z,95117.53
2023-01-07T03:03:27.196Z,95137.25
2023-01-07T03:06:06.782Z,95147.31
2023-01-07T03:08:50.213Z,95146.34
2023-01-07T03:11:20.604Z,95152.53
2023-01-07T03:13:52.473Z,95149.91
2023-01-07T03:16:27.057Z,95145.53
2023-01-07T03:19:02.249Z,95147.16
2023-01-07T03:21:34.941Z,95177.56
2023-01-07T03:24:03.333Z,95167.47
2023-01-07T03:26:33.863Z,95166.66
2023-01-07T03:29:04.087Z,95154.63
2023-01-07T03:31:32.680Z,95178.53
2023-01-07T03:34:04.080Z,95192.84
2023-01-07T03:36:38.650Z,95180.00
2023-01-07T03:39:08.584Z,95170.09
2023-01-07T03:41:53.777Z,95174.31
2023-01-07T03:44:21.815Z,95177.56
2023-01-07T03:46:50.056Z,95202.78
2023-01-07T03:49:17.882Z,95198.88
2023-01-07T03:51:49.480Z,95181.78
2023-01-07T03:54:17.574Z,95206.34
2023-01-07T03:56:45.387Z,95204.88
2023-01-07T03:59:13.157Z,95223.41
2023-01-07T04:01:41.259Z,95214.16
2023-01-07T04:04:09.599Z,95201.97
2023-01-07T04:06:37.663Z,95237.56
2023-01-07T04:09:06.855Z,95251.75
2023-01-07T04:11:34.821Z,95243.31
2023-01-07T04:14:02.701Z,95272.91
2023-01-07T04:16:30.684Z,95300.25
2023-01-07T04:18:58.607Z,95311.78
2023-01-07T04:21:26.501Z,95301.53
2023-01-07T04:23:54.324Z,95310.16
2023-01-07T04:26:23.732Z,95334.75
2023-01-07T04:28:51.733Z,95338.16
2023-01-07T04:31:19.576Z,95342.06
2023-01-07T04:33:47.669Z,95329.88
2023-01-07T04:36:15.492Z,95351.66
2023-01-07T04:38:43.226Z,95374.34
2023-01-07T04:41:11.043Z,95331.97
2023-01-07T04:43:40.255Z,95331.97
2023-01-07T04:46:08.103Z,95349.75
2023-01-07T04:48:36.035Z,95361.78
2023-01-07T04:51:03.910Z,95367.66
2023-01-07T04:53:31.746Z,95356.59
2023-01-07T04:55:59.542Z,95361.78
2023-01-07T04:58:27.303Z,95378.41
2023-01-07T05:00:58.602Z,95386.06
2023-01-07T05:03:26.667Z,95375.16
2023-01-07T05:05:54.414Z,95370.75
2023-01-07T05:08:22.491Z,95367.66
2023-01-07T05:10:50.525Z,95390.44
2023-01-07T05:13:20.281Z,95367.66
2023-01-07T05:15:48.211Z,95375.16
2023-01-07T05:18:17.910Z,95386.22
2023-01-07T05:20:47.521Z,95381.97
2023-01-07T05:23:15.273Z,95409.00
2023-01-07T05:25:43.522Z,95428.56
2023-01-07T05:28:12.105Z,95445.31
2023-01-07T05:30:40.160Z,95447.94
2023-01-07T05:33:08.728Z,95444.50
2023-01-07T05:35:37.966Z,95443.53
2023-01-07T05:38:05.770Z,95441.91
2023-01-07T05:40:33.500Z,95446.16
2023-01-07T05:43:01.573Z,95475.81
2023-01-07T05:45:29.465Z,95469.63
2023-01-07T05:47:57.270Z,95495.22
2023-01-07T05:50:25.134Z,95493.56
2023-01-07T05:52:54.262Z,95513.13
2023-01-07T05:55:22.073Z,95517.19
2023-01-07T05:57:49.876Z,95519.66
2023-01-07T06:00:18.631Z,95551.09
2023-01-07T06:02:46.426Z,95513.78
2023-01-07T06:05:14.589Z,95540.66
2023-01-07T06:07:42.327Z,95562.84
2023-01-07T06:10:11.878Z,95547.69
2023-01-07T06:12:39.768Z,95559.25
2023-01-07T06:15:09.786Z,95576.53
2023-01-07T06:17:37.667Z,95591.56
2023-01-07T06:20:06.798Z,95581.28
2023-01-07T06:22:34.652Z,95589.09
2023-01-07T06:25:02.366Z,95620.25
2023-01-07T06:27:31.518Z,95626.94
2023-01-07T06:29:59.309Z,95637.22
2023-01-07T06:32:27.222Z,95610.13
2023-01-07T06:34:55.179Z,95626.09
2023-01-07T06:37:22.977Z,95644.88
2023-01-07T06:39:50.759Z,95637.22
2023-01-07T06:42:18.820Z,95649.28
2023-01-07T06:44:47.971Z,95662.00
2023-01-07T06:47:15.897Z,95674.72
2023-01-07T06:49:43.793Z,95688.13
2023-01-07T06:52:11.592Z,95673.72
2023-01-07T06:54:39.354Z,95679.59
2023-01-07T06:57:07.240Z,95705.75
2023-01-07T06:59:35.128Z,95709.31
2023-01-07T07:02:05.339Z,95700.84
2023-01-07T07:04:33.176Z,95706.72
2023-01-07T07:07:00.937Z,95723.69
2023-01-07T07:09:28.709Z,95703.44
2023-01-07T07:11:56.540Z,95720.41
2023-01-07T07:14:24.491Z,95743.25
2023-01-07T07:16:52.734Z,95733.78
2023-01-07T07:19:21.913Z,95741.63
2023-01-07T07:21:49.797Z,95716.81
2023-01-07T07:24:17.597Z,95754.34
2023-01-07T07:26:45.512Z,95763.66
2023-01-07T07:29:13.375Z,95802.53
2023-01-07T07:31:41.309Z,95808.56
2023-01-07T07:34:10.433Z,95817.38
2023-01-07T07:36:39.549Z,95814.28
2023-01-07T07:39:07.452Z,95827.19
2023-01-07T07:41:35.237Z,95820.31
2023-01-07T07:44:03.291Z,95793.88
2023-01-07T07:46:31.996Z,95827.19
2023-01-07T07:49:00.298Z,95849.38
2023-01-07T07:51:28.038Z,95855.91
2023-01-07T07:53:57.186Z,95854.28
2023-01-07T07:56:24.986Z,95845.78
2023-01-07T07:58:52.729Z,95884.00
2023-01-07T08:01:20.696Z,95871.25
2023-01-07T08:03:48.788Z,95894.28
2023-01-07T08:06:16.759Z,95904.25
2023-01-07T08:08:44.662Z,95907.00
2023-01-07T08:11:14.096Z,95896.72
2023-01-07T08:13:41.838Z,95898.53
2023-01-07T08:16:09.974Z,95898.38
2023-01-07T08:18:37.817Z,95915.38
2023-01-07T08:21:05.827Z,95943.16
2023-01-07T08:23:34.807Z,95942.34
2023-01-07T08:26:03.719Z,95926.31
2023-01-07T08:28:33.545Z,95936.47
2023-01-07T08:31:02.818Z,95944.94
2023-01-07T08:33:31.463Z,95949.97
2023-01-07T08:35:59.207Z,95954.25
2023-01-07T08:38:28.873Z,95962.75
2023-01-07T08:40:56.656Z,95970.59
2023-01-07T08:43:26.982Z,96014.56
2023-01-07T08:45:56.245Z,96020.59
2023-01-07T08:48:24.127Z,96033.22
2023-01-07T08:50:53.357Z,96023.75
2023-01-07T08:53:21.193Z,96045.00
2023-01-07T08:55:48.970Z,96059.53
2023-01-07T08:58:16.826Z,96070.34
2023-01-07T09:00:44.837Z,96101.22
2023-01-07T09:03:14.050Z,96115.47
2023-01-07T09:05:42.849Z,96129.84
2023-01-07T09:08:10.751Z,96122.47
2023-01-07T09:10:38.669Z,96131.53
2023-01-07T09:13:06.868Z,96122.31
2023-01-07T09:15:34.706Z,96125.59
2023-01-07T09:18:03.682Z,96110.00
2023-01-07T09:20:32.844Z,96122.31
2023-01-07T09:23:00.641Z,96147.03
2023-01-07T09:25:28.386Z,96114.63
2023-01-07T09:27:56.187Z,96157.03
2023-01-07T09:30:23.919Z,96143.63
2023-01-07T09:32:51.724Z,96138.81
2023-01-07T09:35:19.563Z,96173.38
2023-01-07T09:37:48.723Z,96172.41
2023-01-07T09:40:24.604Z,96181.88
2023-01-07T09:42:59.569Z,96176.66
2023-01-07T09:45:31.879Z,96180.91
2023-01-07T09:48:03.959Z,96172.56
2023-01-07T09:50:47.719Z,96197.56
2023-01-07T09:53:20.874Z,96200.19
2023-01-07T09:56:10.435Z,96232.94
2023-01-07T09:58:42.907Z,96194.50
2023-01-07T10:01:22.317Z,96220.00
2023-01-07T10:04:03.724Z,96236.06
2023-01-07T10:06:43.727Z,96243.75
2023-01-07T10:09:25.178Z,96256.53
2023-01-07T10:12:03.318Z,96225.25
2023-01-07T10:15:02.036Z,96223.59
2023-01-07T10:17:46.174Z,96241.94
2023-01-07T10:20:24.505Z,96253.25
2023-01-07T10:22:57.744Z,96244.72
2023-01-07T10:25:31.013Z,96249.78
2023-01-07T10:28:05.631Z,96217.44
2023-01-07T10:30:41.821Z,96208.06
2023-01-07T10:33:18.860Z,96251.59
2023-01-07T10:35:49.221Z,96253.25
2023-01-07T10:38:20.805Z,96254.91
2023-01-07T10:40:55.361Z,96243.09
2023-01-07T10:43:39.230Z,96238.81
2023-01-07T10:46:19.941Z,96266.03
2023-01-07T10:49:05.906Z,96257.38
2023-01-07T10:51:47.147Z,96255.72
2023-01-07T10:54:32.362Z,96229.50
2023-01-07T10:57:10.884Z,96236.22
2023-01-07T10:59:39.258Z,96239.50
2023-01-07T11:02:18.162Z,96230.31
2023-01-07T11:04:46.297Z,96237.03
2023-01-07T11:07:21.656Z,96229.66
2023-01-07T11:09:50.094Z,96243.09
2023-01-07T11:12:28.935Z,96232.94
2023-01-07T11:14:59.755Z,96242.81
2023-01-07T11:17:35.982Z,96243.09
2023-01-07T11:20:05.129Z,96263.41
2023-01-07T11:22:35.008Z,96249.94
2023-01-07T11:25:04.537Z,96270.28
2023-01-07T11:27:35.562Z,96287.31
2023-01-07T11:30:07.429Z,96280.44
2023-01-07T11:32:38.423Z,96287.31
2023-01-07T11:35:09.000Z,96267.00
2023-01-07T11:37:39.501Z,96297.47
2023-01-07T11:40:23.888Z,96297.47
2023-01-07T11:42:55.236Z,96297.47
2023-01-07T11:45:26.382Z,96288.94
2023-01-07T11:48:01.038Z,96319.41
2023-01-07T11:50:37.361Z,96334.13
2023-01-07T11:53:22.776Z,96319.41
2023-01-07T11:55:59.219Z,96359.81
2023-01-07T11:58:31.457Z,96348.69
2023-01-07T12:01:14.542Z,96326.44
2023-01-07T12:03:44.852Z,96351.16
2023-01-07T12:06:22.228Z,96348.00
2023-01-07T12:08:56.933Z,96362.88
2023-01-07T12:11:32.155Z,96372.31
2023-01-07T12:14:07.609Z,96388.53
2023-01-07T12:16:37.235Z,96406.53
2023-01-07T12:19:24.299Z,96391.16
2023-01-07T12:22:03.990Z,96409.81
2023-01-07T12:25:04.288Z,96392.78
2023-01-07T12:27:42.499Z,96381.66
2023-01-07T12:31:00.472Z,96351.16
2023-01-07T12:33:46.391Z,96409.97
2023-01-07T12:36:19.142Z,96385.09
2023-01-07T12:38:50.542Z,96388.69
2023-01-07T12:41:23.707Z,96379.34
2023-01-07T12:43:59.571Z,96348.53
2023-01-07T12:46:36.423Z,96346.38
2023-01-07T12:49:11.687Z,96365.56
2023-01-07T12:51:46.354Z,96354.59
2023-01-07T12:54:19.673Z,96356.22
2023-01-07T12:56:54.597Z,96345.09
2023-01-07T12:59:46.665Z,96331.50
2023-01-07T13:02:28.791Z,96319.72
2023-01-07T13:05:06.649Z,96331.50
2023-01-07T13:07:41.404Z,96343.59
2023-01-07T13:10:16.911Z,96314.47
2023-01-07T13:12:46.228Z,96288.28
2023-01-07T13:15:21.891Z,96312.03
2023-01-07T13:17:53.839Z,96301.03
2023-01-07T13:20:45.406Z,96315.31
2023-01-07T13:23:20.665Z,96326.59
2023-01-07T13:26:16.606Z,96320.00
2023-01-07T13:29:24.953Z,96336.06
2023-01-07T13:32:17.408Z,96337.56
2023-01-07T13:34:59.868Z,96335.09
2023-01-07T13:37:45.730Z,96285.66
2023-01-07T13:40:28.321Z,96295.16
2023-01-07T13:43:07.371Z,96309.56
2023-01-07T13:45:38.591Z,96308.59
2023-01-07T13:48:18.126Z,96318.88
2023-01-07T13:50:57.929Z,96316.28
2023-01-07T13:53:45.933Z,96316.56
2023-01-07T13:56:39.676Z,96319.72
2023-01-07T13:59:29.946Z,96343.59
2023-01-07T14:02:18.112Z,96326.59
2023-01-07T14:04:51.727Z,96311.88
2023-01-07T14:07:21.425Z,96331.66
2023-01-07T14:09:51.837Z,96316.13
2023-01-07T14:12:39.688Z,96328.22
2023-01-07T14:15:55.860Z,96339.34
2023-01-07T14:18:45.829Z,96294.19
2023-01-07T14:21:23.862Z,96312.16
2023-01-07T14:24:04.865Z,96309.56
2023-01-07T14:26:41.407Z,96300.59
2023-01-07T14:29:26.765Z,96319.72
2023-01-07T14:32:21.281Z,96335.09
2023-01-07T14:34:55.549Z,96319.03
2023-01-07T14:37:32.723Z,96333.44
2023-01-07T14:40:03.150Z,96350.47
2023-01-07T14:42:48.903Z,96334.28
2023-01-07T14:45:55.326Z,96327.41
2023-01-07T14:48:35.105Z,96315.75
2023-01-07T14:51:20.430Z,96343.59
2023-01-07T14:54:07.422Z,96349.50
2023-01-07T14:56:48.928Z,96335.09
2023-01-07T14:59:43.424Z,96338.38
2023-01-07T15:02:44.754Z,96339.34
2023-01-07T15:05:30.478Z,96349.50
2023-01-07T15:08:17.252Z,96346.06
2023-01-07T15:11:05.204Z,96345.25
2023-01-07T15:13:59.391Z,96364.91
2023-01-07T15:16:28.332Z,96360.63
2023-01-07T15:18:57.734Z,96354.59
2023-01-07T15:21:36.817Z,96373.41
2023-01-07T15:24:12.779Z,96388.13
2023-01-07T15:26:49.616Z,96374.22
2023-01-07T15:29:26.519Z,96374.38
2023-01-07T15:32:03.340Z,96389.50
2023-01-07T15:34:33.228Z,96370.78
2023-01-07T15:37:05.306Z,96370.13
2023-01-07T15:39:36.475Z,96387.84
2023-01-07T15:42:04.294Z,96403.25
2023-01-07T15:44:40.685Z,96387.84
2023-01-07T15:47:40.040Z,96387.03
2023-01-07T15:50:30.077Z,96397.34
2023-01-07T15:53:00.864Z,96409.16
2023-01-07T15:55:31.699Z,96414.22
2023-01-07T15:58:06.741Z,96408.19
2023-01-07T16:00:36.960Z,96425.22
2023-01-07T16:03:06.101Z,96411.75
2023-01-07T16:05:37.914Z,96438.97
2023-01-07T16:08:06.774Z,96432.91
2023-01-07T16:10:35.977Z,96429.63
2023-01-07T16:13:05.907Z,96411.75
2023-01-07T16:15:37.698Z,96423.56
2023-01-07T16:18:18.910Z,96452.72
2023-01-07T16:20:54.593Z,96462.88
2023-01-07T16:23:24.827Z,96474.69
2023-01-07T16:25:57.308Z,96447.47
2023-01-07T16:28:28.475Z,96456.00
2023-01-07T16:30:58.904Z,96473.88
2023-01-07T16:33:31.202Z,96488.44
2023-01-07T16:36:01.548Z,96464.53
2023-01-07T16:38:32.179Z,96479.75
2023-01-07T16:41:00.974Z,96507.97
2023-01-07T16:43:34.731Z,96501.91
2023-01-07T16:46:18.590Z,96503.56
2023-01-07T16:48:46.643Z,96495.03
2023-01-07T16:51:38.447Z,96520.59
2023-01-07T16:54:31.892Z,96524.19
2023-01-07T16:57:01.484Z,96516.19
2023-01-07T16:59:31.899Z,96493.41
2023-01-07T17:02:10.940Z,96517.31
2023-01-07T17:04:39.088Z,96514.03
2023-01-07T17:07:07.767Z,96491.72
2023-01-07T17:09:38.740Z,96485.16
2023-01-07T17:12:06.979Z,96503.88
2023-01-07T17:14:50.920Z,96481.28
2023-01-07T17:17:25.048Z,96518.97
2023-01-07T17:19:55.632Z,96505.50
2023-01-07T17:22:32.489Z,96501.91
2023-01-07T17:30:41.919Z,96515.97
2023-01-07T17:33:16.537Z,96511.41
2023-01-07T17:35:46.777Z,96533.53
2023-01-07T17:38:15.769Z,96511.28
2023-01-07T17:40:43.764Z,96532.72
2023-01-07T17:43:34.433Z,96542.88
2023-01-07T17:46:02.761Z,96555.00
2023-01-07T17:48:32.276Z,96560.75
2023-01-07T17:51:01.478Z,96529.94
2023-01-07T17:53:32.439Z,96558.28
2023-01-07T17:56:04.776Z,96553.88
2023-01-07T17:58:34.342Z,96559.13
2023-01-07T18:01:06.519Z,96545.50
2023-01-07T18:03:35.971Z,96531.69
2023-01-07T18:06:04.697Z,96546.34
2023-01-07T18:08:32.549Z,96570.94
2023-01-07T18:11:17.943Z,96563.38
2023-01-07T18:13:45.810Z,96528.31
2023-01-07T18:16:15.379Z,96553.88
2023-01-07T18:18:44.505Z,96544.69
2023-01-07T18:21:13.381Z,96533.69
2023-01-07T18:23:41.369Z,96538.63
2023-01-07T18:26:09.338Z,96563.22
2023-01-07T18:28:37.110Z,96577.97
2023-01-07T18:31:05.519Z,96560.91
2023-01-07T18:33:35.129Z,96577.00
2023-01-07T18:36:05.140Z,96594.03
2023-01-07T18:38:32.934Z,96566.00
2023-01-07T18:41:00.685Z,96559.94
2023-01-07T18:43:28.521Z,96588.97
2023-01-07T18:45:56.387Z,96601.75
2023-01-07T18:48:24.484Z,96583.88
2023-01-07T18:50:52.425Z,96600.09
2023-01-07T18:53:22.463Z,96591.41
2023-01-07T18:55:58.627Z,96582.75
2023-01-07T18:58:28.550Z,96589.09
2023-01-07T19:00:56.556Z,96588.13
2023-01-07T19:03:24.440Z,96580.59
2023-01-07T19:05:52.188Z,96582.22
2023-01-07T19:08:21.299Z,96577.13
2023-01-07T19:10:51.916Z,96582.06
2023-01-07T19:13:19.744Z,96585.81
2023-01-07T19:15:47.589Z,96589.09
2023-01-07T19:18:15.510Z,96592.41
2023-01-07T19:20:43.298Z,96590.75
2023-01-07T19:23:11.262Z,96573.69
2023-01-07T19:25:40.374Z,96595.00
2023-01-07T19:28:08.347Z,96602.56
2023-01-07T19:30:36.382Z,96600.91
2023-01-07T19:33:06.417Z,96611.09
2023-01-07T19:35:34.270Z,96611.09
2023-01-07T19:38:02.025Z,96614.41
2023-01-07T19:40:29.796Z,96616.34
2023-01-07T19:42:58.955Z,96613.88
2023-01-07T19:45:26.777Z,96611.09
2023-01-07T19:47:54.683Z,96621.31
2023-01-07T19:50:22.563Z,96620.47
2023-01-07T19:52:50.278Z,96608.47
2023-01-07T19:55:18.710Z,96630.81
2023-01-07T19:57:46.494Z,96638.34
2023-01-07T20:00:16.188Z,96619.66
2023-01-07T20:02:44.107Z,96640.16
2023-01-07T20:05:11.941Z,96641.13
2023-01-07T20:07:39.851Z,96613.03
2023-01-07T20:10:08.718Z,96629.97
2023-01-07T20:12:36.787Z,96610.28
2023-01-07T20:15:04.978Z,96639.19
2023-01-07T20:17:34.266Z,96644.41
2023-01-07T20:20:02.344Z,96629.81
2023-01-07T20:22:30.232Z,96630.13
2023-01-07T20:24:58.052Z,96640.97
2023-01-07T20:27:26.025Z,96633.13
2023-01-07T20:29:54.933Z,96629.16
2023-01-07T20:32:22.671Z,96642.78
2023-01-07T20:34:51.971Z,96643.59
2023-01-07T20:37:19.810Z,96641.94
2023-01-07T20:39:48.077Z,96647.84
2023-01-07T20:42:15.954Z,96662.31
2023-01-07T20:44:43.798Z,96633.41
2023-01-07T20:47:11.620Z,96647.03
2023-01-07T20:49:39.434Z,96647.84
2023-01-07T20:52:08.567Z,96647.19
2023-01-07T20:54:36.456Z,96648.81
2023-01-07T20:57:04.463Z,96651.31
2023-01-07T20:59:35.033Z,96633.16
2023-01-07T21:02:03.010Z,96634.25
2023-01-07T21:04:31.946Z,96654.88
2023-01-07T21:06:59.708Z,96649.66
2023-01-07T21:09:28.859Z,96650.47
2023-01-07T21:11:56.640Z,96641.13
2023-01-07T21:14:24.386Z,96652.28
2023-01-07T21:16:52.223Z,96658.19
2023-01-07T21:19:20.278Z,96666.72
2023-01-07T21:21:48.635Z,96654.88
2023-01-07T21:24:17.434Z,96650.47
2023-01-07T21:26:46.709Z,96662.59
2023-01-07T21:29:16.016Z,96676.75
2023-01-07T21:31:45.307Z,96657.66
2023-01-07T21:34:13.213Z,96656.38
2023-01-07T21:36:41.507Z,96666.56
2023-01-07T21:39:09.569Z,96669.19
2023-01-07T21:41:37.525Z,96674.13
2023-01-07T21:44:07.059Z,96677.72
2023-01-07T21:46:34.799Z,96697.38
2023-01-07T21:49:03.820Z,96704.94
2023-01-07T21:51:31.716Z,96719.41
2023-01-07T21:54:00.889Z,96687.88
2023-01-07T21:56:32.702Z,96684.44
2023-01-07T21:59:01.143Z,96687.06
2023-01-07T22:01:30.656Z,96721.19
2023-01-07T22:03:59.500Z,96721.34
2023-01-07T22:06:29.208Z,96723.81
2023-01-07T22:08:58.651Z,96731.53
2023-01-07T22:11:28.034Z,96724.63
2023-01-07T22:13:57.910Z,96727.25
2023-01-07T22:16:27.972Z,96703.97
2023-01-07T22:18:58.152Z,96691.47
2023-01-07T22:21:26.171Z,96712.97
2023-01-07T22:23:54.006Z,96717.75
2023-01-07T22:26:24.001Z,96731.53
2023-01-07T22:28:54.304Z,96732.34
2023-01-07T22:31:24.129Z,96720.38
2023-01-07T22:33:53.045Z,96716.09
2023-01-07T22:36:27.231Z,96713.63
2023-01-07T22:38:57.905Z,96698.38
2023-01-07T22:41:28.298Z,96695.75
2023-01-07T22:43:56.377Z,96710.19
2023-01-07T22:46:26.294Z,96722.16
2023-01-07T22:48:54.336Z,96714.47
2023-01-07T22:51:27.766Z,96683.91
2023-01-07T22:53:58.240Z,96687.22
2023-01-07T22:56:26.405Z,96700.84
2023-01-07T22:58:55.173Z,96690.66
2023-01-07T23:01:23.091Z,96731.53
2023-01-07T23:03:50.950Z,96709.38
2023-01-07T23:06:18.945Z,96717.22
2023-01-07T23:08:48.181Z,96697.38
2023-01-07T23:11:36.055Z,96692.44
2023-01-07T23:14:04.925Z,96688.84
2023-01-07T23:16:33.223Z,96660.28
2023-01-07T23:19:01.099Z,96689.00
2023-01-07T23:21:31.428Z,96682.94
2023-01-07T23:24:01.496Z,96672.78
2023-01-07T23:26:29.339Z,96667.53
2023-01-07T23:28:57.235Z,96662.59
2023-01-07T23:31:25.037Z,96654.06
2023-01-07T23:33:53.200Z,96681.31
2023-01-07T23:36:21.265Z,96671.94
2023-01-07T23:38:49.056Z,96644.88
2023-01-07T23:41:18.771Z,96631.78
2023-01-07T23:43:46.557Z,96677.03
2023-01-07T23:46:14.579Z,96668.81
2023-01-07T23:48:42.379Z,96637.97
2023-01-07T23:51:13.869Z,96676.38
2023-01-07T23:53:42.430Z,96672.78
2023-01-07T23:56:11.257Z,96707.03
2023-01-07T23:58:40.911Z,96674.88
